GLO2034 SBGL-SBEG
Flight info
| Callsign | GLO2034 |
|---|---|
| Flight time | N/A |
| Altitude | 38000 |
| Route | EDNAM UM409 ESMAR DCT IRUMO |
| Aircraft | B738/M-SDFGIKLORWXY/LB1 |
Departure
| Time | N/A |
|---|---|
| Airport | Rio Galeão – Tom Jobim International Airport (SBGL) |
Arrival
| Time | 2026-04-30 20:41 |
|---|---|
| Airport | Eduardo Gomes International Airport (SBEG) |
| Time | Latitude | Longitude | Altitude | Speed | Heading |
|---|---|---|---|---|---|
| 2026-04-30 17:39 | -18.49678 | -45.53419 | 38013 ft | 444 kts | 327° |
| 2026-04-30 17:42 | -18.24476 | -45.72181 | 38015 ft | 447 kts | 322° |
| 2026-04-30 17:43 | -18.11915 | -45.81960 | 38016 ft | 451 kts | 322° |
| 2026-04-30 17:44 | -17.96750 | -45.93747 | 38006 ft | 452 kts | 322° |
| 2026-04-30 17:47 | -17.74087 | -46.11323 | 37992 ft | 449 kts | 322° |
| 2026-04-30 17:48 | -17.56577 | -46.24879 | 37984 ft | 447 kts | 322° |
| 2026-04-30 17:50 | -17.36535 | -46.40355 | 37975 ft | 449 kts | 322° |
| 2026-04-30 17:52 | -17.21402 | -46.52012 | 37979 ft | 452 kts | 322° |
| 2026-04-30 17:54 | -16.99393 | -46.70587 | 37983 ft | 452 kts | 318° |
| 2026-04-30 17:56 | -16.80238 | -46.87625 | 37992 ft | 451 kts | 318° |
| 2026-04-30 17:58 | -16.65928 | -47.00314 | 37989 ft | 450 kts | 319° |
| 2026-04-30 18:00 | -16.46824 | -47.17212 | 37999 ft | 451 kts | 319° |
| 2026-04-30 18:01 | -16.35072 | -47.28032 | 37995 ft | 451 kts | 314° |
| 2026-04-30 18:02 | -16.21861 | -47.42039 | 37996 ft | 454 kts | 314° |
| 2026-04-30 18:04 | -16.09239 | -47.55227 | 37990 ft | 455 kts | 315° |
| 2026-04-30 18:06 | -15.91369 | -47.73863 | 38064 ft | 455 kts | 315° |
| 2026-04-30 18:08 | -15.75774 | -47.90117 | 38093 ft | 454 kts | 315° |
| 2026-04-30 18:10 | -15.57930 | -48.08707 | 37989 ft | 454 kts | 315° |
| 2026-04-30 18:11 | -15.42091 | -48.24692 | 37960 ft | 455 kts | 318° |
| 2026-04-30 18:13 | -15.30379 | -48.35767 | 37948 ft | 456 kts | 318° |
| 2026-04-30 18:14 | -15.18687 | -48.46910 | 37947 ft | 457 kts | 318° |
| 2026-04-30 18:15 | -15.04628 | -48.60281 | 37928 ft | 458 kts | 318° |
| 2026-04-30 18:16 | -14.95234 | -48.69130 | 37926 ft | 458 kts | 319° |
| 2026-04-30 18:17 | -14.90505 | -48.73552 | 37929 ft | 458 kts | 319° |
| 2026-04-30 18:18 | -14.83415 | -48.80188 | 37926 ft | 459 kts | 319° |
| 2026-04-30 18:18 | -14.78683 | -48.84618 | 37925 ft | 459 kts | 319° |
| 2026-04-30 18:19 | -14.73942 | -48.89052 | 37917 ft | 459 kts | 319° |
| 2026-04-30 18:19 | -14.69206 | -48.93480 | 37925 ft | 459 kts | 319° |
| 2026-04-30 18:20 | -14.64468 | -48.97906 | 37917 ft | 459 kts | 319° |
| 2026-04-30 18:20 | -14.59758 | -49.02304 | 37916 ft | 459 kts | 319° |
| 2026-04-30 18:21 | -14.55017 | -49.06728 | 37912 ft | 459 kts | 319° |
| 2026-04-30 18:21 | -14.50280 | -49.11146 | 37903 ft | 458 kts | 319° |
| 2026-04-30 18:22 | -14.45548 | -49.15556 | 37911 ft | 458 kts | 319° |
| 2026-04-30 18:22 | -14.38454 | -49.22163 | 37902 ft | 458 kts | 319° |
| 2026-04-30 18:23 | -14.33722 | -49.26567 | 37898 ft | 458 kts | 319° |
| 2026-04-30 18:23 | -14.28982 | -49.30975 | 37892 ft | 458 kts | 319° |
| 2026-04-30 18:24 | -14.21916 | -49.37543 | 37888 ft | 458 kts | 319° |
| 2026-04-30 18:25 | -14.17178 | -49.41943 | 37893 ft | 458 kts | 319° |
| 2026-04-30 18:25 | -14.10077 | -49.48534 | 37885 ft | 458 kts | 319° |
| 2026-04-30 18:26 | -14.02975 | -49.55121 | 37874 ft | 458 kts | 319° |
| 2026-04-30 18:27 | -13.95800 | -49.61564 | 37873 ft | 458 kts | 320° |
| 2026-04-30 18:28 | -13.88572 | -49.67981 | 37868 ft | 458 kts | 320° |
| 2026-04-30 18:28 | -13.81344 | -49.74422 | 37874 ft | 458 kts | 320° |
| 2026-04-30 18:29 | -13.71703 | -49.83014 | 37866 ft | 458 kts | 320° |
| 2026-04-30 18:30 | -13.62066 | -49.91592 | 37868 ft | 458 kts | 320° |
| 2026-04-30 18:31 | -13.54828 | -49.98027 | 37868 ft | 458 kts | 320° |
| 2026-04-30 18:32 | -13.47617 | -50.04434 | 37868 ft | 458 kts | 320° |
| 2026-04-30 18:33 | -13.40380 | -50.10859 | 37871 ft | 458 kts | 320° |
| 2026-04-30 18:33 | -13.33150 | -50.17271 | 37865 ft | 458 kts | 320° |
| 2026-04-30 18:34 | -13.25912 | -50.23687 | 37865 ft | 458 kts | 320° |
| 2026-04-30 18:35 | -13.21082 | -50.27966 | 37857 ft | 458 kts | 320° |
| 2026-04-30 18:35 | -13.16292 | -50.32206 | 37859 ft | 458 kts | 320° |
| 2026-04-30 18:36 | -13.09040 | -50.38622 | 37864 ft | 458 kts | 320° |
| 2026-04-30 18:37 | -13.01789 | -50.45035 | 37860 ft | 459 kts | 320° |
| 2026-04-30 18:37 | -12.96953 | -50.49310 | 37851 ft | 459 kts | 320° |
| 2026-04-30 18:38 | -12.92108 | -50.53590 | 37852 ft | 459 kts | 320° |
| 2026-04-30 18:38 | -12.87291 | -50.57844 | 37848 ft | 460 kts | 320° |
| 2026-04-30 18:39 | -12.82444 | -50.62122 | 37850 ft | 459 kts | 320° |
| 2026-04-30 18:39 | -12.77597 | -50.66397 | 37846 ft | 459 kts | 320° |
| 2026-04-30 18:40 | -12.72752 | -50.70668 | 37851 ft | 460 kts | 320° |
| 2026-04-30 18:40 | -12.67905 | -50.74939 | 37848 ft | 460 kts | 320° |
| 2026-04-30 18:41 | -12.63050 | -50.79215 | 37844 ft | 460 kts | 320° |
| 2026-04-30 18:41 | -12.58200 | -50.83484 | 37847 ft | 460 kts | 320° |
| 2026-04-30 18:42 | -12.53348 | -50.87753 | 37849 ft | 460 kts | 320° |
| 2026-04-30 18:42 | -12.46097 | -50.94128 | 37852 ft | 460 kts | 320° |
| 2026-04-30 18:45 | -12.19285 | -51.17663 | 37850 ft | 462 kts | 320° |
| 2026-04-30 18:46 | -12.14399 | -51.21944 | 37849 ft | 463 kts | 320° |
| 2026-04-30 18:46 | -12.09542 | -51.26200 | 37846 ft | 463 kts | 320° |
| 2026-04-30 18:47 | -12.04656 | -51.30481 | 37850 ft | 462 kts | 320° |
| 2026-04-30 18:47 | -11.99774 | -51.34756 | 37849 ft | 462 kts | 320° |
| 2026-04-30 18:48 | -11.94893 | -51.39028 | 37850 ft | 462 kts | 320° |
| 2026-04-30 18:48 | -11.90002 | -51.43306 | 37842 ft | 462 kts | 321° |
| 2026-04-30 18:49 | -11.85127 | -51.47570 | 37848 ft | 461 kts | 320° |
| 2026-04-30 18:49 | -11.80287 | -51.51800 | 37851 ft | 460 kts | 321° |
| 2026-04-30 18:50 | -11.75420 | -51.56051 | 37849 ft | 460 kts | 320° |
| 2026-04-30 18:50 | -11.70557 | -51.60296 | 37850 ft | 459 kts | 321° |
| 2026-04-30 18:51 | -11.65705 | -51.64532 | 37847 ft | 459 kts | 321° |
| 2026-04-30 18:51 | -11.60855 | -51.68762 | 37848 ft | 458 kts | 321° |
| 2026-04-30 18:52 | -11.56035 | -51.72964 | 37841 ft | 458 kts | 321° |
| 2026-04-30 18:52 | -11.51193 | -51.77184 | 37851 ft | 458 kts | 321° |
| 2026-04-30 18:53 | -11.46352 | -51.81401 | 37838 ft | 458 kts | 321° |
| 2026-04-30 18:53 | -11.41514 | -51.85614 | 37839 ft | 457 kts | 321° |
| 2026-04-30 18:54 | -11.37488 | -51.89118 | 37841 ft | 457 kts | 321° |
| 2026-04-30 18:54 | -11.32652 | -51.93326 | 37848 ft | 457 kts | 321° |
| 2026-04-30 18:55 | -11.27814 | -51.97532 | 37839 ft | 457 kts | 321° |
| 2026-04-30 18:55 | -11.20492 | -52.03758 | 37841 ft | 457 kts | 322° |
| 2026-04-30 18:56 | -11.13156 | -52.09956 | 37843 ft | 456 kts | 322° |
| 2026-04-30 18:57 | -11.05834 | -52.16156 | 37847 ft | 456 kts | 322° |
| 2026-04-30 18:57 | -11.00961 | -52.20284 | 37847 ft | 456 kts | 322° |
| 2026-04-30 18:58 | -10.93651 | -52.26473 | 37849 ft | 455 kts | 322° |
| 2026-04-30 18:59 | -10.86352 | -52.32646 | 37848 ft | 455 kts | 322° |
| 2026-04-30 19:00 | -10.76647 | -52.40850 | 37847 ft | 454 kts | 322° |
| 2026-04-30 19:01 | -10.66925 | -52.49060 | 37848 ft | 454 kts | 322° |
| 2026-04-30 19:02 | -10.59635 | -52.55212 | 37850 ft | 454 kts | 322° |
| 2026-04-30 19:03 | -10.49908 | -52.63414 | 37855 ft | 454 kts | 322° |
| 2026-04-30 19:04 | -10.40194 | -52.71598 | 37849 ft | 453 kts | 322° |
| 2026-04-30 19:05 | -10.30524 | -52.79739 | 37852 ft | 453 kts | 322° |
| 2026-04-30 19:06 | -10.20829 | -52.87894 | 37846 ft | 452 kts | 322° |
| 2026-04-30 19:06 | -10.13565 | -52.94001 | 37844 ft | 452 kts | 322° |
| 2026-04-30 19:07 | -10.06313 | -53.00094 | 37851 ft | 451 kts | 322° |
| 2026-04-30 19:08 | -9.96628 | -53.08224 | 37850 ft | 451 kts | 322° |
| 2026-04-30 19:09 | -9.89426 | -53.14311 | 37852 ft | 452 kts | 320° |
| 2026-04-30 19:09 | -9.84780 | -53.18619 | 37853 ft | 452 kts | 319° |
| 2026-04-30 19:10 | -9.75561 | -53.27306 | 37851 ft | 453 kts | 319° |
| 2026-04-30 19:11 | -9.68605 | -53.33787 | 37852 ft | 452 kts | 319° |
| 2026-04-30 19:12 | -9.63962 | -53.38108 | 37851 ft | 452 kts | 319° |
| 2026-04-30 19:12 | -9.59330 | -53.42418 | 37845 ft | 452 kts | 319° |
| 2026-04-30 19:13 | -9.50102 | -53.50993 | 37842 ft | 451 kts | 319° |
| 2026-04-30 19:14 | -9.45479 | -53.55275 | 37843 ft | 450 kts | 319° |
| 2026-04-30 19:14 | -9.40860 | -53.59552 | 37841 ft | 449 kts | 319° |
| 2026-04-30 19:15 | -9.36247 | -53.63824 | 37843 ft | 449 kts | 319° |
| 2026-04-30 19:15 | -9.29341 | -53.70219 | 37840 ft | 448 kts | 319° |
| 2026-04-30 19:16 | -9.24733 | -53.74484 | 37839 ft | 448 kts | 319° |
| 2026-04-30 19:17 | -9.17856 | -53.80844 | 37839 ft | 448 kts | 319° |
| 2026-04-30 19:17 | -9.10954 | -53.87226 | 37841 ft | 448 kts | 319° |
| 2026-04-30 19:18 | -9.04041 | -53.93612 | 37837 ft | 448 kts | 319° |
| 2026-04-30 19:19 | -8.99437 | -53.97865 | 37839 ft | 449 kts | 319° |
| 2026-04-30 19:19 | -8.92517 | -54.04254 | 37834 ft | 449 kts | 319° |
| 2026-04-30 19:20 | -8.87928 | -54.08489 | 37836 ft | 449 kts | 319° |
| 2026-04-30 19:21 | -8.81001 | -54.14879 | 37834 ft | 449 kts | 319° |
| 2026-04-30 19:22 | -8.71762 | -54.23396 | 37836 ft | 449 kts | 319° |
| 2026-04-30 19:23 | -8.57936 | -54.36129 | 37832 ft | 449 kts | 319° |
| 2026-04-30 19:24 | -8.51003 | -54.42510 | 37828 ft | 449 kts | 319° |
| 2026-04-30 19:25 | -8.39446 | -54.53138 | 37826 ft | 449 kts | 319° |
| 2026-04-30 19:26 | -8.30238 | -54.61602 | 37825 ft | 448 kts | 319° |
| 2026-04-30 19:27 | -8.23312 | -54.67963 | 37820 ft | 448 kts | 319° |
| 2026-04-30 19:28 | -8.16388 | -54.74316 | 37820 ft | 448 kts | 319° |
| 2026-04-30 19:29 | -8.07163 | -54.82781 | 37817 ft | 448 kts | 319° |
| 2026-04-30 19:30 | -7.97951 | -54.91227 | 37822 ft | 448 kts | 319° |
| 2026-04-30 19:31 | -7.88717 | -54.99689 | 37823 ft | 448 kts | 319° |
| 2026-04-30 19:31 | -7.81791 | -55.06033 | 37815 ft | 448 kts | 319° |
| 2026-04-30 19:32 | -7.77171 | -55.10262 | 37819 ft | 448 kts | 319° |
| 2026-04-30 19:32 | -7.72556 | -55.14485 | 37824 ft | 448 kts | 319° |
| 2026-04-30 19:33 | -7.67940 | -55.18708 | 37814 ft | 448 kts | 319° |
| 2026-04-30 19:33 | -7.63356 | -55.22901 | 37819 ft | 448 kts | 319° |
| 2026-04-30 19:34 | -7.58734 | -55.27127 | 37818 ft | 448 kts | 319° |
| 2026-04-30 19:35 | -7.51808 | -55.33458 | 37822 ft | 448 kts | 319° |
| 2026-04-30 19:35 | -7.47189 | -55.37678 | 37823 ft | 448 kts | 319° |
| 2026-04-30 19:36 | -7.42574 | -55.41896 | 37817 ft | 448 kts | 319° |
| 2026-04-30 19:36 | -7.35659 | -55.48232 | 37816 ft | 448 kts | 319° |
| 2026-04-30 19:37 | -7.31057 | -55.52465 | 37816 ft | 448 kts | 319° |
| 2026-04-30 19:37 | -7.26462 | -55.56651 | 37824 ft | 448 kts | 320° |
| 2026-04-30 19:38 | -7.21708 | -55.60751 | 37822 ft | 447 kts | 321° |
| 2026-04-30 19:38 | -7.16984 | -55.64775 | 37824 ft | 447 kts | 321° |
| 2026-04-30 19:39 | -7.12250 | -55.68830 | 37829 ft | 447 kts | 321° |
| 2026-04-30 19:39 | -7.07515 | -55.72903 | 37820 ft | 447 kts | 321° |
| 2026-04-30 19:40 | -7.02783 | -55.76978 | 37824 ft | 447 kts | 321° |
| 2026-04-30 19:40 | -6.98048 | -55.81058 | 37822 ft | 447 kts | 321° |
| 2026-04-30 19:41 | -6.93319 | -55.85128 | 37822 ft | 447 kts | 321° |
| 2026-04-30 19:41 | -6.88591 | -55.89195 | 37817 ft | 447 kts | 321° |
| 2026-04-30 19:42 | -6.83891 | -55.93238 | 37817 ft | 447 kts | 321° |
| 2026-04-30 19:42 | -6.79165 | -55.97303 | 37824 ft | 447 kts | 321° |
| 2026-04-30 19:43 | -6.74440 | -56.01365 | 37822 ft | 447 kts | 321° |
| 2026-04-30 19:44 | -6.68146 | -56.06775 | 37825 ft | 447 kts | 321° |
| 2026-04-30 19:44 | -6.63417 | -56.10838 | 37826 ft | 447 kts | 321° |
| 2026-04-30 19:45 | -6.58690 | -56.14899 | 37824 ft | 447 kts | 321° |
| 2026-04-30 19:45 | -6.53962 | -56.18960 | 37823 ft | 447 kts | 321° |
| 2026-04-30 19:46 | -6.49227 | -56.23024 | 37831 ft | 447 kts | 321° |
| 2026-04-30 19:46 | -6.44502 | -56.27080 | 37827 ft | 447 kts | 321° |
| 2026-04-30 19:47 | -6.39774 | -56.31137 | 37831 ft | 447 kts | 321° |
| 2026-04-30 19:47 | -6.35048 | -56.35192 | 37830 ft | 447 kts | 321° |
| 2026-04-30 19:48 | -6.30318 | -56.39249 | 37831 ft | 447 kts | 321° |
| 2026-04-30 19:48 | -6.25615 | -56.43282 | 37830 ft | 447 kts | 321° |
| 2026-04-30 19:49 | -6.20881 | -56.47340 | 37824 ft | 447 kts | 321° |
| 2026-04-30 19:49 | -6.13777 | -56.53429 | 37829 ft | 447 kts | 321° |
| 2026-04-30 19:50 | -6.09044 | -56.57484 | 37821 ft | 447 kts | 321° |
| 2026-04-30 19:50 | -6.04306 | -56.61542 | 37824 ft | 447 kts | 321° |
| 2026-04-30 19:51 | -5.99568 | -56.65600 | 37826 ft | 447 kts | 321° |
| 2026-04-30 19:51 | -5.94827 | -56.69660 | 37817 ft | 447 kts | 321° |
| 2026-04-30 19:52 | -5.90121 | -56.73688 | 37821 ft | 447 kts | 321° |
| 2026-04-30 19:52 | -5.85386 | -56.77741 | 37817 ft | 447 kts | 321° |
| 2026-04-30 19:53 | -5.80648 | -56.81796 | 37817 ft | 447 kts | 321° |
| 2026-04-30 19:53 | -5.75975 | -56.85933 | 37814 ft | 448 kts | 314° |
| 2026-04-30 19:54 | -5.72395 | -56.91051 | 37834 ft | 450 kts | 300° |
| 2026-04-30 19:54 | -5.69487 | -56.96621 | 37822 ft | 450 kts | 298° |
| 2026-04-30 19:55 | -5.66594 | -57.02209 | 37816 ft | 450 kts | 299° |
| 2026-04-30 19:55 | -5.63674 | -57.07771 | 37825 ft | 450 kts | 299° |
| 2026-04-30 19:56 | -5.60734 | -57.13323 | 37821 ft | 450 kts | 299° |
| 2026-04-30 19:56 | -5.57789 | -57.18870 | 37827 ft | 450 kts | 299° |
| 2026-04-30 19:57 | -5.54845 | -57.24414 | 37825 ft | 450 kts | 299° |
| 2026-04-30 19:57 | -5.51922 | -57.29919 | 37822 ft | 450 kts | 299° |
| 2026-04-30 19:58 | -5.48979 | -57.35461 | 37825 ft | 449 kts | 299° |
| 2026-04-30 19:58 | -5.46038 | -57.40995 | 37822 ft | 449 kts | 299° |
| 2026-04-30 19:59 | -5.43096 | -57.46532 | 37825 ft | 449 kts | 299° |
| 2026-04-30 20:00 | -5.38691 | -57.54819 | 37825 ft | 448 kts | 299° |
| 2026-04-30 20:00 | -5.35758 | -57.60335 | 37828 ft | 448 kts | 300° |
| 2026-04-30 20:01 | -5.31359 | -57.68606 | 37824 ft | 448 kts | 299° |
| 2026-04-30 20:01 | -5.28424 | -57.74122 | 37825 ft | 448 kts | 299° |
| 2026-04-30 20:02 | -5.24030 | -57.82376 | 37822 ft | 449 kts | 299° |
| 2026-04-30 20:03 | -5.19611 | -57.90677 | 37827 ft | 450 kts | 299° |
| 2026-04-30 20:03 | -5.16657 | -57.96222 | 37818 ft | 451 kts | 299° |
| 2026-04-30 20:04 | -5.13699 | -58.01773 | 37824 ft | 451 kts | 299° |
| 2026-04-30 20:05 | -5.09256 | -58.10110 | 37815 ft | 452 kts | 299° |
| 2026-04-30 20:05 | -5.04811 | -58.18447 | 37815 ft | 451 kts | 299° |
| 2026-04-30 20:06 | -5.01873 | -58.23958 | 37815 ft | 451 kts | 299° |
| 2026-04-30 20:06 | -4.98920 | -58.29494 | 37813 ft | 450 kts | 299° |
| 2026-04-30 20:07 | -4.95967 | -58.35028 | 37810 ft | 449 kts | 299° |
| 2026-04-30 20:08 | -4.91553 | -58.43298 | 37811 ft | 448 kts | 299° |
| 2026-04-30 20:08 | -4.88615 | -58.48801 | 37813 ft | 447 kts | 299° |
| 2026-04-30 20:09 | -4.85685 | -58.54288 | 37809 ft | 446 kts | 299° |
| 2026-04-30 20:09 | -4.81293 | -58.62509 | 37814 ft | 446 kts | 299° |
| 2026-04-30 20:10 | -4.76902 | -58.70725 | 37814 ft | 446 kts | 299° |
| 2026-04-30 20:11 | -4.72491 | -58.78976 | 37158 ft | 453 kts | 299° |
| 2026-04-30 20:11 | -4.71005 | -58.81755 | 36638 ft | 451 kts | 299° |
| 2026-04-30 20:11 | -4.69531 | -58.84513 | 36269 ft | 446 kts | 299° |
| 2026-04-30 20:12 | -4.66623 | -58.89951 | 35457 ft | 439 kts | 299° |
| 2026-04-30 20:12 | -4.65207 | -58.92599 | 35056 ft | 436 kts | 299° |
| 2026-04-30 20:12 | -4.63778 | -58.95271 | 34653 ft | 433 kts | 299° |
| 2026-04-30 20:13 | -4.62340 | -58.97958 | 34229 ft | 431 kts | 299° |
| 2026-04-30 20:13 | -4.60944 | -59.00568 | 33830 ft | 429 kts | 299° |
| 2026-04-30 20:13 | -4.59536 | -59.03197 | 33366 ft | 427 kts | 299° |
| 2026-04-30 20:13 | -4.58137 | -59.05812 | 32947 ft | 424 kts | 299° |
| 2026-04-30 20:14 | -4.56745 | -59.08412 | 32530 ft | 422 kts | 299° |
| 2026-04-30 20:14 | -4.55365 | -59.10990 | 32136 ft | 419 kts | 299° |
| 2026-04-30 20:14 | -4.53990 | -59.13557 | 31743 ft | 416 kts | 299° |
| 2026-04-30 20:14 | -4.52626 | -59.16105 | 31356 ft | 414 kts | 299° |
| 2026-04-30 20:15 | -4.51265 | -59.18646 | 30967 ft | 412 kts | 299° |
| 2026-04-30 20:15 | -4.49911 | -59.21175 | 30579 ft | 410 kts | 299° |
| 2026-04-30 20:15 | -4.48561 | -59.23695 | 30184 ft | 409 kts | 299° |
| 2026-04-30 20:15 | -4.47216 | -59.26206 | 29780 ft | 408 kts | 299° |
| 2026-04-30 20:16 | -4.45875 | -59.28709 | 29353 ft | 406 kts | 299° |
| 2026-04-30 20:16 | -4.44559 | -59.31165 | 28932 ft | 403 kts | 299° |
| 2026-04-30 20:16 | -4.43222 | -59.33661 | 28523 ft | 400 kts | 300° |
| 2026-04-30 20:16 | -4.41926 | -59.36080 | 28129 ft | 397 kts | 300° |
| 2026-04-30 20:17 | -4.40621 | -59.38514 | 27743 ft | 395 kts | 300° |
| 2026-04-30 20:17 | -4.39328 | -59.40927 | 27359 ft | 392 kts | 300° |
| 2026-04-30 20:17 | -4.38041 | -59.43329 | 26979 ft | 390 kts | 300° |
| 2026-04-30 20:17 | -4.36763 | -59.45712 | 26596 ft | 388 kts | 300° |
| 2026-04-30 20:18 | -4.35490 | -59.48088 | 26224 ft | 386 kts | 300° |
| 2026-04-30 20:18 | -4.34222 | -59.50452 | 25850 ft | 384 kts | 300° |
| 2026-04-30 20:18 | -4.32960 | -59.52806 | 25478 ft | 382 kts | 300° |
| 2026-04-30 20:18 | -4.31705 | -59.55146 | 25086 ft | 382 kts | 300° |
| 2026-04-30 20:19 | -4.30452 | -59.57481 | 24708 ft | 381 kts | 300° |
| 2026-04-30 20:19 | -4.29617 | -59.59038 | 24448 ft | 381 kts | 300° |
| 2026-04-30 20:19 | -4.27941 | -59.62163 | 23951 ft | 380 kts | 300° |
| 2026-04-30 20:19 | -4.26688 | -59.64499 | 23566 ft | 380 kts | 300° |
| 2026-04-30 20:20 | -4.25431 | -59.66841 | 23144 ft | 380 kts | 300° |
| 2026-04-30 20:20 | -4.24182 | -59.69169 | 22742 ft | 379 kts | 300° |
| 2026-04-30 20:20 | -4.22936 | -59.71492 | 22361 ft | 377 kts | 300° |
| 2026-04-30 20:20 | -4.21698 | -59.73798 | 21976 ft | 375 kts | 300° |
| 2026-04-30 20:21 | -4.20481 | -59.76067 | 21611 ft | 373 kts | 300° |
| 2026-04-30 20:21 | -4.19241 | -59.78378 | 21242 ft | 372 kts | 300° |
| 2026-04-30 20:21 | -4.18035 | -59.80625 | 20881 ft | 370 kts | 300° |
| 2026-04-30 20:21 | -4.16817 | -59.82893 | 20520 ft | 368 kts | 300° |
| 2026-04-30 20:22 | -4.15602 | -59.85157 | 20156 ft | 367 kts | 300° |
| 2026-04-30 20:22 | -4.14396 | -59.87404 | 19791 ft | 366 kts | 300° |
| 2026-04-30 20:22 | -4.13190 | -59.89650 | 19428 ft | 365 kts | 300° |
| 2026-04-30 20:22 | -4.11990 | -59.91885 | 19058 ft | 364 kts | 300° |
| 2026-04-30 20:23 | -4.10696 | -59.94058 | 18672 ft | 362 kts | 312° |
| 2026-04-30 20:23 | -4.08825 | -59.95695 | 18342 ft | 354 kts | 332° |
| 2026-04-30 20:23 | -4.06583 | -59.96643 | 17963 ft | 349 kts | 345° |
| 2026-04-30 20:23 | -4.04261 | -59.97354 | 17566 ft | 347 kts | 347° |
| 2026-04-30 20:24 | -4.01944 | -59.98020 | 17202 ft | 345 kts | 347° |
| 2026-04-30 20:24 | -3.99670 | -59.98670 | 16843 ft | 343 kts | 347° |
| 2026-04-30 20:24 | -3.97380 | -59.99331 | 16486 ft | 341 kts | 347° |
| 2026-04-30 20:24 | -3.95104 | -59.99996 | 16144 ft | 339 kts | 347° |
| 2026-04-30 20:25 | -3.90590 | -60.01332 | 15452 ft | 336 kts | 346° |
| 2026-04-30 20:25 | -3.88353 | -60.01999 | 15109 ft | 335 kts | 346° |
| 2026-04-30 20:26 | -3.83903 | -60.03329 | 14414 ft | 332 kts | 346° |
| 2026-04-30 20:26 | -3.79480 | -60.04653 | 13720 ft | 331 kts | 346° |
| 2026-04-30 20:26 | -3.77275 | -60.05313 | 13342 ft | 330 kts | 346° |
| 2026-04-30 20:27 | -3.72923 | -60.06616 | 12636 ft | 327 kts | 346° |
| 2026-04-30 20:27 | -3.68591 | -60.07913 | 11951 ft | 323 kts | 346° |
| 2026-04-30 20:28 | -3.64315 | -60.09193 | 11284 ft | 319 kts | 346° |
| 2026-04-30 20:28 | -3.60129 | -60.10446 | 10612 ft | 305 kts | 346° |
| 2026-04-30 20:29 | -3.56770 | -60.11452 | 10105 ft | 298 kts | 346° |
| 2026-04-30 20:30 | -3.50989 | -60.13180 | 9472 ft | 286 kts | 346° |
| 2026-04-30 20:30 | -3.45304 | -60.14879 | 8589 ft | 282 kts | 346° |
| 2026-04-30 20:31 | -3.39692 | -60.16557 | 7721 ft | 279 kts | 345° |
| 2026-04-30 20:32 | -3.34156 | -60.18213 | 6867 ft | 277 kts | 345° |
| 2026-04-30 20:32 | -3.30473 | -60.19314 | 6298 ft | 275 kts | 345° |
| 2026-04-30 20:33 | -3.28641 | -60.19862 | 5995 ft | 275 kts | 345° |
| 2026-04-30 20:33 | -3.24988 | -60.20954 | 5407 ft | 273 kts | 345° |
| 2026-04-30 20:33 | -3.23144 | -60.21389 | 5107 ft | 272 kts | 351° |
| 2026-04-30 20:34 | -3.19412 | -60.21968 | 4537 ft | 270 kts | 352° |
| 2026-04-30 20:34 | -3.15765 | -60.22557 | 4174 ft | 260 kts | 352° |
| 2026-04-30 20:35 | -3.14005 | -60.22846 | 4043 ft | 252 kts | 353° |
| 2026-04-30 20:35 | -3.12287 | -60.22943 | 3914 ft | 241 kts | 1° |
| 2026-04-30 20:35 | -3.09121 | -60.22891 | 3734 ft | 214 kts | 2° |
| 2026-04-30 20:36 | -3.07668 | -60.22877 | 3630 ft | 205 kts | 2° |
| 2026-04-30 20:36 | -3.06274 | -60.22865 | 3496 ft | 201 kts | 3° |
| 2026-04-30 20:36 | -3.04146 | -60.21537 | 3102 ft | 179 kts | 66° |
| 2026-04-30 20:37 | -3.03880 | -60.20357 | 2925 ft | 172 kts | 89° |
| 2026-04-30 20:37 | -3.03851 | -60.19201 | 2720 ft | 159 kts | 90° |
| 2026-04-30 20:37 | -3.03836 | -60.18123 | 2514 ft | 154 kts | 91° |
| 2026-04-30 20:37 | -3.03834 | -60.17066 | 2324 ft | 151 kts | 91° |
| 2026-04-30 20:38 | -3.03836 | -60.16024 | 2133 ft | 149 kts | 91° |
| 2026-04-30 20:38 | -3.03838 | -60.14976 | 1941 ft | 150 kts | 91° |
| 2026-04-30 20:38 | -3.03840 | -60.13934 | 1745 ft | 148 kts | 90° |
| 2026-04-30 20:39 | -3.03844 | -60.11839 | 1354 ft | 150 kts | 90° |
| 2026-04-30 20:39 | -3.03847 | -60.10803 | 1172 ft | 148 kts | 90° |
| 2026-04-30 20:39 | -3.03849 | -60.09765 | 991 ft | 150 kts | 90° |
| 2026-04-30 20:40 | -3.03853 | -60.07679 | 611 ft | 150 kts | 89° |
| 2026-04-30 20:40 | -3.03855 | -60.06641 | 400 ft | 148 kts | 89° |
| 2026-04-30 20:40 | -3.03863 | -60.05622 | 272 ft | 140 kts | 88° |
| 2026-04-30 20:41 | -3.03861 | -60.04311 | 270 ft | 74 kts | 90° |
| 2026-04-30 20:41 | -3.03861 | -60.03912 | 269 ft | 39 kts | 89° |
| 2026-04-30 20:41 | -3.03793 | -60.03769 | 269 ft | 20 kts | 9° |
| 2026-04-30 20:41 | -3.03688 | -60.03833 | 269 ft | 19 kts | 293° |
| 2026-04-30 20:42 | -3.03653 | -60.03957 | 269 ft | 18 kts | 285° |
| 2026-04-30 20:42 | -3.03621 | -60.04078 | 269 ft | 18 kts | 285° |
| 2026-04-30 20:42 | -3.03528 | -60.04293 | 269 ft | 16 kts | 309° |
| 2026-04-30 20:43 | -3.03440 | -60.04359 | 269 ft | 16 kts | 335° |
| 2026-04-30 20:43 | -3.03346 | -60.04393 | 269 ft | 13 kts | 317° |
| 2026-04-30 20:43 | -3.03343 | -60.04480 | 269 ft | 13 kts | 259° |
| 2026-04-30 20:44 | -3.03291 | -60.04580 | 269 ft | 5 kts | 356° |
| 2026-04-30 20:44 | -3.03272 | -60.04581 | 269 ft | 2 kts | 356° |